CheckWX is a tool to help pilots better visualize weather data.  It is not intended as a substitute for an official pre-flight weather briefing.

03:22:38 UTC

KMRN METAR
Foothills Regional Airport
Morganton, North Carolina, USA
Current

23 mins ago

KMRN 240300Z AUTO 00000KT 10SM CLR 03/M04 A3032 RMK AO2 T00281042
Observed
Mar-24 @ 03:00 UTC
Visibility
10 SM
Flight Rules
VFR
Cloud Levels
  • Clear skies
Temperature
C / 37°F
Dewpoint
-4°C / 25°F
Humidity
60%
Altimeter
30.32" Hg
Pressure
1026.72 hPa
Previous

43 mins ago

KMRN 240240Z AUTO 00000KT 10SM CLR 03/M03 A3032 RMK AO2 T00251032
Observed
Mar-24 @ 02:40 UTC
Visibility
10 SM
Flight Rules
VFR
Cloud Levels
  • Clear skies
Temperature
C / 37°F
Dewpoint
-3°C / 27°F
Humidity
65%
Altimeter
30.32" Hg
Pressure
1026.72 hPa
Previous

1 hour ago

KMRN 240220Z AUTO 00000KT 10SM CLR 03/M04 A3031 RMK AO2 T00331041
Observed
Mar-24 @ 02:20 UTC
Visibility
10 SM
Flight Rules
VFR
Cloud Levels
  • Clear skies
Temperature
C / 37°F
Dewpoint
-4°C / 25°F
Humidity
60%
Altimeter
30.31" Hg
Pressure
1026.42 hPa